METAR Data
IDs: Format: Raw Decoded Include TAF

Data at: 1416 UTC 22 Apr 2021

KISM 221356Z 05011G15KT 10SM CLR 19/10 A3014 RMK AO2 SLP205 T01940100 PNO $
KISM 221256Z 03006G14KT 10SM CLR 19/11 A3012 RMK AO2 SLP201 T01890106 PNO $
KISM 221156Z 03006KT 10SM CLR 18/10 A3011 RMK AO2 SLP198 6//// 7//// T01780100 10189 20161 53021 PNO $
KISM 221056Z 02006KT 10SM CLR 17/11 A3009 RMK AO2 SLP191 T01720111 PNO $
KISM 220956Z AUTO 03005KT 10SM CLR 18/13 A3007 RMK AO2 SLP181 T01830128 PNO $
KISM 220856Z AUTO 00000KT 10SM CLR 16/15 A3005 RMK AO2 SLP177 6//// T01610150 53015 PNO $
KISM 220756Z AUTO 33004KT 10SM CLR 18/16 A3001 RMK AO2 SLP162 T01780161 PNO $
KISM 220656Z AUTO 30005KT 10SM CLR 18/16 A3002 RMK AO2 SLP163 T01830161 PNO $
KISM 220556Z AUTO 32008KT 10SM CLR 19/16 A3001 RMK AO2 SLP161 6//// T01890156 10250 20183 58008 PNO $
KISM 220456Z AUTO 31006KT 10SM CLR 18/14 A3004 RMK AO2 SLP172 T01830144 403000183 PNO $
KISM 220356Z AUTO 30007KT 10SM CLR 19/13 A3005 RMK AO2 SLP175 T01890133 PNO $
KISM 220256Z AUTO 30008KT 10SM CLR 20/12 A3003 RMK AO2 SLP170 6//// T02000122 51016 PNO $
KISM 220156Z 29006KT 10SM CLR 21/12 A3002 RMK AO2 SLP166 T02110122 PNO $
KISM 220056Z 28010KT 10SM CLR 23/11 A3000 RMK AO2 SLP160 T02280111 PNO $
KISM 212356Z 28008KT 10SM CLR 25/11 A2999 RMK AO2 SLP154 6//// T02500111 10300 20250 53014 PNO $
KISM 212256Z 29010KT 10SM CLR 28/11 A2997 RMK AO2 SLP146 T02830106 PNO $
KISM 212156Z 29010KT 10SM CLR 29/13 A2995 RMK AO2 SLP140 T02940128 PNO $
KISM 212056Z 28006KT 10SM CLR 29/16 A2995 RMK AO2 SLP140 6//// T02940156 58017 PNO $
KISM 211956Z 26005KT 10SM CLR 29/15 A2996 RMK AO2 SLP145 T02890150 PNO $
KISM 211856Z 32004KT 10SM CLR 28/15 A2999 RMK AO2 SLP153 T02830150 PNO $
KISM 211756Z 29007KT 250V320 10SM CLR 28/14 A3000 RMK AO2 SLP157 6//// T02780139 10278 20217 58009 PNO $
KISM 211656Z 29007KT 10SM CLR 28/14 A3001 RMK AO2 SLP161 T02780144 PNO $
KISM 211556Z 34008KT 290V010 10SM CLR 27/17 A3002 RMK AO2 SLP166 T02670167 PNO $
KISM 211525Z 33008KT 10SM SCT022 26/17 A3003 RMK AO2 PNO $
KISM 211456Z 30009KT 10SM BKN018 BKN065 25/19 A3002 RMK AO2 SLP166 6//// T02500189 51009 PNO $
KISM 211415Z 28004KT 10SM SCT012 OVC016 23/20 A3001 RMK AO2 PNO $
KISM 211356Z 32007KT 10SM BKN010 24/21 A3001 RMK AO2 SLP163 T02390206 PNO $
KISM 211326Z 33007KT 10SM BKN010 OVC065 23/21 A3001 RMK AO2 PNO $
KISM 211256Z 30008KT 10SM FEW007 BKN065 22/21 A3001 RMK AO2 SLP163 T02220206 PNO $
KISM 211156Z 30006KT 10SM SCT007 SCT013 22/21 A3000 RMK AO2 SLP159 6//// 7//// T02170211 10217 20206 51007 PNO $
KISM 211153Z 30005KT 10SM SCT007 BKN013 22/21 A3000 RMK AO2 PNO $
KISM 211144Z 30006KT 9SM FEW007 SCT014 21/21 A2999 RMK AO2 PNO $
KISM 211131Z 31005KT 8SM OVC015 21/21 A2999 RMK AO2 PNO $
KISM 211103Z 30004KT 5SM BR BKN013 OVC033 21/21 A2999 RMK AO2 PNO $
KISM 211056Z 30003KT 6SM BR BKN015 BKN033 21/21 A2999 RMK AO2 SLP155 T02110211 PNO $
KISM 210956Z AUTO 23003KT 8SM OVC035 21/21 A2998 RMK AO2 SLP151 T02110211 PNO $
KISM 210911Z AUTO 00000KT 8SM FEW027 OVC035 22/21 A2997 RMK AO2 PNO $
KISM 210856Z AUTO 00000KT 9SM FEW004 BKN027 OVC037 22/22 A2996 RMK AO2 SLP146 6//// T02170217 55001 PNO $
KISM 210828Z AUTO 24003KT 10SM SCT004 BKN018 OVC025 22/22 A2997 RMK AO2 PNO $
KISM 210756Z AUTO 00000KT 9SM SCT020 OVC027 22/21 A2996 RMK AO2 SLP146 T02170211 PNO $
KISM 210656Z AUTO 26003KT 10SM OVC020 22/22 A2996 RMK AO2 SLP145 T02170217 PNO $
KISM 210614Z AUTO 23003KT 10SM SCT007 OVC020 21/21 A2996 RMK AO2 PNO $
KISM 210556Z AUTO 19003KT 10SM BKN007 OVC022 21/21 A2996 RMK AO2 SLP147 6//// T02060206 10222 20206 55006 PNO $
KISM 210553Z AUTO 19003KT 10SM BKN007 OVC022 21/21 A2996 RMK AO2 PNO $
KISM 210535Z AUTO 00000KT 10SM FEW007 BKN022 21/21 A2997 RMK AO2 PNO $
KISM 210506Z AUTO 00000KT 10SM SCT022 21/21 A2997 RMK AO2 PNO $
KISM 210456Z AUTO 00000KT 10SM BKN022 21/21 A2997 RMK AO2 SLP148 T02110206 402440194 PNO $
KISM 210407Z AUTO 00000KT 10SM BKN024 21/21 A2998 RMK AO2 PNO $
KISM 210356Z AUTO 00000KT 10SM SCT022 21/21 A2998 RMK AO2 SLP153 T02110206 PNO $
KISM 210354Z AUTO 00000KT 10SM SCT022 21/21 A2998 RMK AO2 PNO $
KISM 210333Z AUTO 00000KT 10SM OVC020 21/21 A2998 RMK AO2 PNO $
KISM 210325Z AUTO 00000KT 2 1/2SM BR OVC020 21/21 A2998 RMK AO2 PNO $
KISM 210305Z AUTO 00000KT 10SM BKN020 OVC045 21/21 A2998 RMK AO2 PNO $
KISM 210256Z AUTO 00000KT 10SM SCT022 BKN045 21/21 A2998 RMK AO2 SLP152 6//// T02110206 51014 PNO $